createdAt,value
2023-01-13T00:17:40.751Z,2.40
2023-01-13T00:20:07.145Z,2.54
2023-01-13T00:22:33.535Z,2.33
2023-01-13T00:24:59.924Z,2.26
2023-01-13T00:27:26.298Z,2.44
2023-01-13T00:29:52.670Z,2.49
2023-01-13T00:32:19.045Z,2.72
2023-01-13T00:34:45.412Z,2.22
2023-01-13T00:37:11.798Z,2.50
2023-01-13T00:39:38.182Z,2.42
2023-01-13T00:42:04.561Z,2.28
2023-01-13T00:44:30.954Z,2.39
2023-01-13T00:46:57.328Z,2.24
2023-01-13T00:49:23.690Z,2.41
2023-01-13T00:51:50.051Z,2.31
2023-01-13T00:54:16.445Z,2.44
2023-01-13T00:56:42.848Z,2.19
2023-01-13T00:59:09.231Z,2.59
2023-01-13T01:01:35.685Z,2.32
2023-01-13T01:04:02.116Z,2.54
2023-01-13T01:06:28.492Z,2.29
2023-01-13T01:08:54.889Z,2.46
2023-01-13T01:11:21.293Z,2.45
2023-01-13T01:13:47.674Z,2.43
2023-01-13T01:16:14.104Z,2.54
2023-01-13T01:18:40.495Z,2.39
2023-01-13T01:21:06.867Z,2.20
2023-01-13T01:23:33.264Z,2.89
2023-01-13T01:25:59.624Z,2.39
2023-01-13T01:28:26.000Z,2.32
2023-01-13T01:30:52.389Z,2.40
2023-01-13T01:33:18.771Z,2.24
2023-01-13T01:35:45.161Z,2.58
2023-01-13T01:38:11.517Z,2.43
2023-01-13T01:40:37.893Z,2.46
2023-01-13T01:43:04.269Z,2.42
2023-01-13T01:45:30.657Z,2.52
2023-01-13T01:47:57.053Z,2.38
2023-01-13T01:50:23.429Z,2.67
2023-01-13T01:52:49.798Z,2.31
2023-01-13T01:55:16.167Z,2.36
2023-01-13T01:57:42.550Z,2.38
2023-01-13T02:00:08.938Z,2.48
2023-01-13T02:02:35.333Z,2.66
2023-01-13T02:05:01.752Z,2.42
2023-01-13T02:07:28.139Z,2.41
2023-01-13T02:09:54.514Z,2.58
2023-01-13T02:12:20.892Z,2.56
2023-01-13T02:14:47.272Z,2.42
2023-01-13T02:17:13.649Z,2.56
2023-01-13T02:19:40.049Z,2.40
2023-01-13T02:22:06.429Z,2.48
2023-01-13T02:24:32.816Z,2.49
2023-01-13T02:26:59.353Z,2.69
2023-01-13T02:29:25.788Z,2.51
2023-01-13T02:31:52.197Z,2.73
2023-01-13T02:34:18.608Z,2.49
2023-01-13T02:36:44.965Z,2.76
2023-01-13T02:39:11.341Z,2.67
2023-01-13T02:41:37.727Z,2.43
2023-01-13T02:44:04.112Z,2.55
2023-01-13T02:46:30.492Z,2.84
2023-01-13T02:48:56.872Z,2.63
2023-01-13T02:51:23.259Z,2.59
2023-01-13T02:53:49.617Z,2.62
2023-01-13T02:56:16.016Z,2.53
2023-01-13T02:58:42.404Z,2.59
2023-01-13T03:01:08.843Z,2.81
2023-01-13T03:03:35.295Z,2.41
2023-01-13T03:06:01.643Z,2.29
2023-01-13T03:08:27.989Z,2.46
2023-01-13T03:10:54.384Z,2.35
2023-01-13T03:13:20.776Z,2.36
2023-01-13T03:15:47.158Z,2.65
2023-01-13T03:18:13.552Z,2.18
2023-01-13T03:20:39.938Z,2.38
2023-01-13T03:23:06.280Z,2.42
2023-01-13T03:25:32.617Z,2.62
2023-01-13T03:27:58.959Z,2.66
2023-01-13T03:30:25.303Z,2.53
2023-01-13T03:32:51.653Z,2.69
2023-01-13T03:35:18.006Z,2.56
2023-01-13T03:37:44.353Z,2.54
2023-01-13T03:40:10.701Z,2.30
2023-01-13T03:42:37.035Z,2.17
2023-01-13T03:45:03.428Z,2.48
2023-01-13T03:47:29.830Z,2.50
2023-01-13T03:49:56.241Z,2.15
2023-01-13T03:52:22.643Z,2.36
2023-01-13T03:54:49.034Z,2.50
2023-01-13T03:57:15.384Z,2.46
2023-01-13T03:59:41.751Z,2.41
2023-01-13T04:02:08.289Z,2.30
2023-01-13T04:04:34.747Z,2.34
2023-01-13T04:07:01.091Z,2.35
2023-01-13T04:09:27.427Z,2.54
2023-01-13T04:11:53.804Z,2.27
2023-01-13T04:14:20.186Z,2.62
2023-01-13T04:16:46.572Z,2.44
2023-01-13T04:19:12.925Z,2.66
2023-01-13T04:21:39.321Z,2.48
2023-01-13T04:24:05.722Z,2.61
2023-01-13T04:26:32.115Z,2.57
2023-01-13T04:28:58.493Z,2.58
2023-01-13T04:31:24.979Z,2.56
2023-01-13T04:33:51.354Z,2.67
2023-01-13T04:36:17.699Z,2.83
2023-01-13T04:38:44.031Z,2.42
2023-01-13T04:41:11.490Z,2.66
2023-01-13T04:43:37.849Z,2.73
2023-01-13T04:46:04.238Z,2.36
2023-01-13T04:48:30.715Z,2.34
2023-01-13T04:50:57.072Z,2.21
2023-01-13T04:53:23.453Z,2.24
2023-01-13T04:55:49.793Z,2.16
2023-01-13T04:58:16.141Z,2.17
2023-01-13T05:00:42.537Z,2.31
2023-01-13T05:03:08.930Z,2.19
2023-01-13T05:05:35.299Z,2.07
2023-01-13T05:08:01.648Z,2.40
2023-01-13T05:10:28.041Z,2.15
2023-01-13T05:12:54.450Z,2.32
2023-01-13T05:15:20.799Z,2.19
2023-01-13T05:17:47.145Z,2.29
2023-01-13T05:20:13.490Z,1.98
2023-01-13T05:22:39.871Z,2.09
2023-01-13T05:25:06.279Z,2.09
2023-01-13T05:27:32.647Z,2.00
2023-01-13T05:29:59.044Z,2.14
2023-01-13T05:32:25.429Z,2.37
2023-01-13T05:34:51.824Z,2.24
2023-01-13T05:37:18.202Z,2.22
2023-01-13T05:39:44.555Z,2.30
2023-01-13T05:42:10.941Z,2.29
2023-01-13T05:44:37.291Z,2.32
2023-01-13T05:47:03.626Z,2.49
2023-01-13T05:49:30.024Z,2.44
2023-01-13T05:51:56.375Z,2.41
2023-01-13T05:54:22.757Z,2.37
2023-01-13T05:56:49.110Z,2.76
2023-01-13T05:59:15.451Z,2.52
2023-01-13T06:01:41.799Z,2.18
2023-01-13T06:04:08.235Z,2.19
2023-01-13T06:06:34.601Z,2.08
2023-01-13T06:09:00.986Z,2.24
2023-01-13T06:11:27.357Z,2.07
2023-01-13T06:13:53.721Z,2.02
2023-01-13T06:16:20.123Z,2.26
2023-01-13T06:18:46.488Z,1.83
2023-01-13T06:21:12.871Z,2.09
2023-01-13T06:23:39.269Z,2.27
2023-01-13T06:26:05.635Z,2.07
2023-01-13T06:28:31.961Z,2.20
2023-01-13T06:30:58.311Z,2.01
2023-01-13T06:33:24.648Z,2.10
2023-01-13T06:35:51.032Z,1.98
2023-01-13T06:38:17.375Z,2.03
2023-01-13T06:40:43.724Z,2.16
2023-01-13T06:43:10.120Z,2.08
2023-01-13T06:45:36.492Z,1.91
2023-01-13T06:48:02.878Z,1.93
2023-01-13T06:50:29.243Z,2.01
2023-01-13T06:52:55.625Z,1.69
2023-01-13T06:55:22.026Z,1.79
2023-01-13T06:57:48.479Z,1.65
2023-01-13T07:00:14.898Z,1.69
2023-01-13T07:02:41.411Z,1.64
2023-01-13T07:05:07.973Z,1.54
2023-01-13T07:07:34.420Z,1.54
2023-01-13T07:10:00.891Z,1.34
2023-01-13T07:12:27.254Z,1.59
2023-01-13T07:14:53.641Z,1.61
2023-01-13T07:17:19.991Z,1.54
2023-01-13T07:19:46.385Z,1.76
2023-01-13T07:22:12.779Z,1.81
2023-01-13T07:24:39.199Z,1.55
2023-01-13T07:27:05.598Z,1.63
2023-01-13T07:29:31.988Z,1.60
2023-01-13T07:31:58.359Z,1.49
2023-01-13T07:34:24.773Z,1.51
2023-01-13T07:36:51.107Z,1.27
2023-01-13T07:39:17.489Z,1.20
2023-01-13T07:41:43.830Z,1.18
2023-01-13T07:44:10.185Z,1.56
2023-01-13T07:46:36.536Z,1.43
2023-01-13T07:49:02.865Z,1.18
2023-01-13T07:51:29.254Z,1.49
2023-01-13T07:53:55.605Z,1.39
2023-01-13T07:56:21.964Z,1.34
2023-01-13T07:58:48.288Z,1.20
2023-01-13T08:01:14.750Z,1.31
2023-01-13T08:03:41.166Z,1.25
2023-01-13T08:06:07.571Z,1.38
2023-01-13T08:08:33.932Z,1.59
2023-01-13T08:11:00.277Z,1.43
2023-01-13T08:13:26.611Z,1.12
2023-01-13T08:15:52.985Z,1.23
2023-01-13T08:18:19.335Z,1.19
2023-01-13T08:20:45.729Z,1.33
2023-01-13T08:23:12.089Z,1.23
2023-01-13T08:25:38.421Z,1.42
2023-01-13T08:28:04.757Z,1.45
2023-01-13T08:30:31.211Z,1.27
2023-01-13T08:32:57.637Z,1.36
2023-01-13T08:35:23.994Z,1.69
2023-01-13T08:37:50.383Z,1.59
2023-01-13T08:40:16.759Z,1.51
2023-01-13T08:42:43.118Z,1.38
2023-01-13T08:45:09.503Z,1.61
2023-01-13T08:47:35.894Z,1.46
2023-01-13T08:50:02.292Z,1.47
2023-01-13T08:52:28.660Z,1.58
2023-01-13T08:54:55.052Z,1.56
2023-01-13T08:57:21.484Z,1.63
2023-01-13T08:59:47.886Z,1.58
2023-01-13T09:02:14.311Z,1.71
2023-01-13T09:04:40.807Z,1.72
2023-01-13T09:07:07.298Z,1.70
2023-01-13T09:09:33.692Z,1.64
2023-01-13T09:12:00.112Z,1.67
2023-01-13T09:14:26.477Z,1.71
2023-01-13T09:16:52.814Z,1.79
2023-01-13T09:19:19.220Z,1.75
2023-01-13T09:21:45.626Z,1.61
2023-01-13T09:24:12.040Z,1.70
2023-01-13T09:26:38.442Z,1.74
2023-01-13T09:29:04.798Z,1.75
2023-01-13T09:31:31.195Z,1.64
2023-01-13T09:33:57.557Z,1.53
2023-01-13T09:36:23.897Z,1.71
2023-01-13T09:38:50.239Z,1.60
2023-01-13T09:41:16.622Z,1.49
2023-01-13T09:43:42.971Z,1.50
2023-01-13T09:46:09.333Z,1.66
2023-01-13T09:48:35.747Z,1.66
2023-01-13T09:51:02.167Z,1.56
2023-01-13T09:53:28.571Z,1.65
2023-01-13T09:55:54.976Z,1.45
2023-01-13T09:58:21.358Z,1.46
2023-01-13T10:00:47.735Z,1.44
2023-01-13T10:03:14.088Z,1.41
2023-01-13T10:05:40.472Z,1.24
2023-01-13T10:08:06.830Z,1.40
2023-01-13T10:10:33.210Z,1.29
2023-01-13T10:12:59.564Z,1.41
2023-01-13T10:15:25.943Z,1.32
2023-01-13T10:17:52.303Z,1.39
2023-01-13T10:20:18.649Z,1.35
2023-01-13T10:22:45.022Z,1.22
2023-01-13T10:25:11.376Z,1.21
2023-01-13T10:27:37.730Z,1.35
2023-01-13T10:30:04.109Z,1.40
2023-01-13T10:32:30.497Z,1.35
2023-01-13T10:34:56.888Z,1.38
2023-01-13T10:37:23.266Z,1.29
2023-01-13T10:39:49.626Z,1.28
2023-01-13T10:42:16.048Z,1.43
2023-01-13T10:44:42.463Z,1.29
2023-01-13T10:47:08.850Z,1.25
2023-01-13T10:49:35.207Z,1.51
2023-01-13T10:52:01.607Z,1.55
2023-01-13T10:54:28.033Z,1.39
2023-01-13T10:56:54.381Z,1.44
2023-01-13T10:59:20.721Z,1.29
2023-01-13T11:01:47.236Z,1.22
2023-01-13T11:04:13.672Z,1.37
2023-01-13T11:06:40.018Z,1.55
2023-01-13T11:09:06.408Z,1.39
2023-01-13T11:11:32.825Z,1.53
2023-01-13T11:13:59.284Z,1.36
2023-01-13T11:16:25.694Z,1.40
2023-01-13T11:18:52.134Z,1.36
2023-01-13T11:21:18.572Z,1.40
2023-01-13T11:23:44.968Z,1.32
2023-01-13T11:26:11.314Z,1.16
2023-01-13T11:28:37.699Z,1.29
2023-01-13T11:31:04.065Z,1.07
2023-01-13T11:33:30.427Z,1.29
2023-01-13T11:35:56.812Z,1.59
2023-01-13T11:38:23.191Z,1.41
2023-01-13T11:40:49.525Z,1.20
2023-01-13T11:43:15.905Z,1.42
2023-01-13T11:45:42.292Z,1.58
2023-01-13T11:48:08.691Z,1.44
2023-01-13T11:50:35.121Z,1.20
2023-01-13T11:53:01.471Z,1.25
2023-01-13T11:55:27.812Z,1.13
2023-01-13T11:57:54.213Z,1.28
2023-01-13T12:00:20.576Z,1.26
2023-01-13T12:02:47.041Z,1.23
2023-01-13T12:05:13.469Z,1.26
2023-01-13T12:07:39.813Z,1.18
2023-01-13T12:10:10.381Z,1.29
2023-01-13T12:12:39.374Z,1.42
2023-01-13T12:15:05.756Z,1.54
2023-01-13T12:17:32.154Z,1.41
2023-01-13T12:19:58.511Z,1.45
2023-01-13T12:22:24.842Z,1.46
2023-01-13T12:24:51.218Z,1.53
2023-01-13T12:27:17.614Z,1.58
2023-01-13T12:29:43.972Z,1.73
2023-01-13T12:32:10.365Z,1.43
2023-01-13T12:34:36.915Z,1.64
2023-01-13T12:37:03.303Z,1.48
2023-01-13T12:39:29.660Z,1.24
2023-01-13T12:41:56.012Z,1.49
2023-01-13T12:44:22.351Z,1.55
2023-01-13T12:46:48.776Z,1.33
2023-01-13T12:49:15.162Z,1.39
2023-01-13T12:51:41.550Z,1.30
2023-01-13T12:54:07.921Z,1.37
2023-01-13T12:56:36.281Z,1.34
2023-01-13T12:59:02.870Z,1.24
2023-01-13T13:01:29.399Z,1.42
2023-01-13T13:03:55.767Z,1.31
2023-01-13T13:06:22.150Z,1.33
2023-01-13T13:08:48.533Z,1.25
2023-01-13T13:11:14.933Z,1.18
2023-01-13T13:13:41.281Z,1.30
2023-01-13T13:16:07.619Z,1.30
2023-01-13T13:18:33.967Z,1.98
2023-01-13T13:21:02.922Z,1.55
2023-01-13T13:23:30.235Z,1.19
2023-01-13T13:25:56.638Z,2.94
2023-01-13T13:28:22.994Z,0.97
2023-01-13T13:30:49.417Z,0.71
2023-01-13T13:33:15.898Z,0.76
2023-01-13T13:35:42.247Z,0.72
2023-01-13T13:38:08.585Z,0.60
2023-01-13T13:40:34.961Z,0.68
2023-01-13T13:43:01.342Z,0.56
2023-01-13T13:45:27.744Z,0.56
2023-01-13T13:47:54.083Z,0.66
2023-01-13T13:50:20.540Z,0.48
2023-01-13T13:52:47.115Z,0.45
2023-01-13T13:55:13.482Z,0.48
2023-01-13T13:57:40.205Z,0.51
2023-01-13T14:00:06.649Z,0.58
2023-01-13T14:02:32.985Z,0.73
2023-01-13T14:04:59.341Z,0.93
2023-01-13T14:07:25.725Z,0.73
2023-01-13T14:09:52.040Z,0.70
2023-01-13T14:12:18.375Z,0.69
2023-01-13T14:14:44.711Z,0.85
2023-01-13T14:17:11.085Z,0.69
2023-01-13T14:19:37.469Z,0.82
2023-01-13T14:22:03.821Z,1.68
2023-01-13T14:24:30.190Z,0.85
2023-01-13T14:26:56.576Z,1.43
2023-01-13T14:29:22.967Z,0.95
2023-01-13T14:31:49.386Z,0.97
2023-01-13T14:34:31.487Z,0.86
2023-01-13T14:36:59.320Z,0.88
2023-01-13T14:39:25.690Z,0.98
2023-01-13T14:41:52.060Z,1.02
2023-01-13T14:44:18.438Z,1.07
2023-01-13T14:46:44.787Z,1.31
2023-01-13T14:49:11.131Z,1.24
2023-01-13T14:51:37.502Z,1.39
2023-01-13T14:54:03.887Z,1.51
2023-01-13T14:56:31.201Z,1.33
2023-01-13T14:58:57.570Z,1.23
2023-01-13T15:01:24.008Z,1.24
2023-01-13T15:03:50.365Z,1.27
2023-01-13T15:06:16.738Z,1.18
2023-01-13T15:08:43.126Z,1.28
2023-01-13T15:11:09.519Z,1.56
2023-01-13T15:13:35.947Z,1.45
2023-01-13T15:16:02.367Z,1.25
2023-01-13T15:18:28.696Z,1.27
2023-01-13T15:20:55.055Z,1.30
2023-01-13T15:23:21.417Z,1.31
2023-01-13T15:25:47.758Z,0.98
2023-01-13T15:28:14.181Z,1.08
2023-01-13T15:30:40.525Z,1.02
2023-01-13T15:33:06.899Z,1.01
2023-01-13T15:35:33.280Z,0.97
2023-01-13T15:37:59.663Z,1.02
2023-01-13T15:40:26.042Z,1.05
2023-01-13T15:42:52.386Z,1.09
2023-01-13T15:45:18.720Z,1.04
2023-01-13T15:47:45.094Z,0.96
2023-01-13T15:50:11.470Z,0.77
2023-01-13T15:52:37.826Z,0.83
2023-01-13T15:55:04.205Z,0.69
2023-01-13T15:57:30.545Z,0.43
2023-01-13T15:59:56.882Z,0.41
2023-01-13T16:02:23.265Z,0.28
2023-01-13T16:04:49.652Z,0.38
2023-01-13T16:07:16.048Z,0.33
2023-01-13T16:09:42.381Z,0.38
2023-01-13T16:12:08.753Z,0.36
2023-01-13T16:14:35.137Z,0.29
2023-01-13T16:17:01.523Z,0.38
2023-01-13T16:19:27.873Z,0.28
2023-01-13T16:21:54.215Z,0.34
2023-01-13T16:24:20.602Z,0.31
2023-01-13T16:26:46.934Z,0.41
2023-01-13T16:29:13.268Z,0.34
2023-01-13T16:31:39.918Z,0.38
2023-01-13T16:34:06.302Z,0.54
2023-01-13T16:36:32.698Z,0.51
2023-01-13T16:38:59.051Z,0.42
2023-01-13T16:41:25.391Z,0.33
2023-01-13T16:43:51.782Z,0.31
2023-01-13T16:46:18.136Z,0.35
2023-01-13T16:48:44.495Z,0.49
2023-01-13T16:51:10.873Z,0.34
2023-01-13T16:53:37.260Z,0.30
2023-01-13T16:56:03.619Z,0.34
2023-01-13T16:58:29.956Z,0.28
2023-01-13T17:00:56.378Z,0.42
2023-01-13T17:03:22.819Z,0.46
2023-01-13T17:05:49.188Z,0.52
2023-01-13T17:08:15.534Z,0.49
2023-01-13T17:10:41.916Z,0.51
2023-01-13T17:13:15.957Z,0.81
2023-01-13T17:15:42.967Z,0.59
2023-01-13T17:18:09.306Z,0.74
2023-01-13T17:20:35.654Z,0.71
2023-01-13T17:23:01.987Z,0.56
2023-01-13T17:25:28.384Z,0.59
2023-01-13T17:27:54.723Z,0.67
2023-01-13T17:30:21.093Z,0.79
2023-01-13T17:32:47.435Z,0.77
2023-01-13T17:35:13.801Z,1.01
2023-01-13T17:37:40.185Z,0.62
2023-01-13T17:40:06.564Z,0.88
2023-01-13T17:42:32.909Z,1.10
2023-01-13T17:44:59.275Z,1.02
2023-01-13T17:47:25.613Z,1.08
2023-01-13T17:49:51.981Z,1.00
2023-01-13T17:52:18.341Z,1.26
2023-01-13T17:54:44.713Z,1.29
2023-01-13T17:57:11.103Z,1.42
2023-01-13T17:59:37.439Z,1.43
2023-01-13T18:02:03.962Z,1.53
2023-01-13T18:04:30.474Z,1.39
2023-01-13T18:06:56.819Z,1.56
2023-01-13T18:09:23.148Z,1.58
2023-01-13T18:11:49.527Z,1.77
2023-01-13T18:14:15.862Z,1.85
2023-01-13T18:16:42.207Z,1.89
2023-01-13T18:19:08.541Z,1.94
2023-01-13T18:21:34.917Z,2.32
2023-01-13T18:24:01.255Z,1.48
2023-01-13T18:26:27.620Z,1.66
2023-01-13T18:28:54.017Z,1.92
2023-01-13T18:31:20.400Z,1.65
2023-01-13T18:33:46.742Z,1.42
2023-01-13T18:36:13.131Z,1.55
2023-01-13T18:38:39.511Z,1.45
2023-01-13T18:41:05.900Z,1.99
2023-01-13T18:43:32.276Z,1.82
2023-01-13T18:45:58.701Z,1.68
2023-01-13T18:48:25.111Z,1.78
2023-01-13T18:50:51.489Z,1.39
2023-01-13T18:53:17.817Z,1.51
2023-01-13T18:55:44.188Z,1.59
2023-01-13T18:58:10.577Z,1.37
2023-01-13T19:00:36.991Z,1.53
2023-01-13T19:05:32.245Z,2.20
2023-01-13T19:07:58.651Z,2.03
2023-01-13T19:10:25.019Z,2.10
2023-01-13T19:12:51.345Z,1.73
2023-01-13T19:15:17.739Z,2.21
2023-01-13T19:17:44.099Z,1.84
2023-01-13T19:20:10.471Z,1.78
2023-01-13T19:22:36.851Z,1.58
2023-01-13T19:25:03.235Z,1.43
2023-01-13T19:27:29.715Z,1.54
2023-01-13T19:29:56.062Z,1.95
2023-01-13T19:32:22.566Z,1.95
2023-01-13T19:34:48.991Z,1.84
2023-01-13T19:37:15.318Z,1.83
2023-01-13T19:39:41.688Z,1.77
2023-01-13T19:42:08.070Z,2.30
2023-01-13T19:44:34.400Z,1.92
2023-01-13T19:47:00.775Z,1.43
2023-01-13T19:49:27.159Z,1.49
2023-01-13T19:51:53.550Z,1.50
2023-01-13T19:54:19.935Z,2.05
2023-01-13T19:56:46.268Z,1.97
2023-01-13T19:59:12.650Z,1.40
2023-01-13T20:01:39.185Z,1.54
2023-01-13T20:04:05.577Z,2.10
2023-01-13T20:06:31.900Z,1.72
2023-01-13T20:08:58.266Z,1.98
2023-01-13T20:11:24.602Z,1.70
2023-01-13T20:13:50.928Z,1.52
2023-01-13T20:16:17.369Z,1.89
2023-01-13T20:18:43.759Z,1.98
2023-01-13T20:21:10.140Z,1.98
2023-01-13T20:23:36.503Z,1.72
2023-01-13T20:26:02.849Z,2.90
2023-01-13T20:28:29.219Z,2.50
2023-01-13T20:30:55.592Z,2.19
2023-01-13T20:33:21.969Z,2.46
2023-01-13T20:35:48.358Z,2.61
2023-01-13T20:38:14.755Z,2.28
2023-01-13T20:40:41.148Z,2.82
2023-01-13T20:43:07.542Z,2.93
2023-01-13T20:45:33.886Z,2.70
2023-01-13T20:48:00.268Z,2.50
2023-01-13T20:50:26.656Z,2.66
2023-01-13T20:52:53.040Z,2.66
2023-01-13T20:55:19.443Z,2.46
2023-01-13T20:57:45.959Z,2.90
2023-01-13T21:00:12.354Z,2.76
2023-01-13T21:02:38.704Z,2.35
2023-01-13T21:05:05.043Z,2.80
2023-01-13T21:07:31.548Z,2.32
2023-01-13T21:09:57.979Z,2.50
2023-01-13T21:12:24.349Z,2.38
2023-01-13T21:14:50.726Z,2.61
2023-01-13T21:17:17.089Z,2.73
2023-01-13T21:19:43.473Z,2.48
2023-01-13T21:22:09.852Z,2.35
2023-01-13T21:24:36.205Z,2.08
2023-01-13T21:27:02.596Z,2.27
2023-01-13T21:29:29.147Z,2.28
2023-01-13T21:31:55.519Z,2.39
2023-01-13T21:34:21.887Z,1.94
2023-01-13T21:36:48.275Z,1.75
2023-01-13T21:39:14.619Z,1.65
2023-01-13T21:41:41.026Z,1.65
2023-01-13T21:44:07.433Z,1.80
2023-01-13T21:46:33.835Z,1.89
2023-01-13T21:49:00.229Z,2.10
2023-01-13T21:51:26.577Z,1.69
2023-01-13T21:53:52.929Z,1.70
2023-01-13T21:56:19.315Z,1.89
2023-01-13T21:58:45.717Z,1.99
2023-01-13T22:01:12.249Z,1.99
2023-01-13T22:03:38.743Z,2.12
2023-01-13T22:06:05.550Z,2.25
2023-01-13T22:08:31.953Z,2.29
2023-01-13T22:10:58.658Z,2.12
2023-01-13T22:13:25.058Z,2.17
2023-01-13T22:15:51.395Z,2.28
2023-01-13T22:18:17.772Z,2.23
2023-01-13T22:20:44.172Z,2.27
2023-01-13T22:23:10.527Z,2.38
2023-01-13T22:25:36.874Z,2.65
2023-01-13T22:28:03.234Z,2.85
2023-01-13T22:30:29.579Z,2.85
2023-01-13T22:32:55.904Z,2.38
2023-01-13T22:35:22.246Z,2.42
2023-01-13T22:37:48.618Z,2.43
2023-01-13T22:40:15.012Z,2.49
2023-01-13T22:42:41.365Z,2.75
2023-01-13T22:45:07.739Z,2.41
2023-01-13T22:47:34.094Z,2.39
2023-01-13T22:50:00.456Z,2.43
2023-01-13T22:52:26.799Z,2.19
2023-01-13T22:54:53.171Z,2.62
2023-01-13T22:57:19.565Z,2.78
2023-01-13T22:59:45.933Z,2.52
2023-01-13T23:02:12.532Z,2.07
2023-01-13T23:04:38.913Z,2.50
2023-01-13T23:07:05.309Z,2.28
2023-01-13T23:09:31.729Z,2.67
2023-01-13T23:11:58.120Z,2.46
2023-01-13T23:14:24.465Z,2.71
2023-01-13T23:16:50.850Z,2.57
2023-01-13T23:19:17.383Z,2.24
2023-01-13T23:21:43.794Z,2.55
2023-01-13T23:24:10.196Z,2.49
2023-01-13T23:26:36.563Z,2.53
2023-01-13T23:29:02.961Z,3.13
2023-01-13T23:31:29.304Z,2.89
2023-01-13T23:33:55.687Z,2.94
2023-01-13T23:36:22.090Z,2.88
2023-01-13T23:38:48.448Z,2.91
2023-01-13T23:41:14.832Z,3.07
2023-01-13T23:43:41.249Z,2.62
2023-01-13T23:46:07.693Z,2.75
2023-01-13T23:48:34.101Z,3.06
2023-01-13T23:51:00.505Z,2.84
2023-01-13T23:53:26.895Z,3.13
2023-01-13T23:55:53.249Z,3.21
2023-01-13T23:58:19.618Z,3.11
